createdAt,value
2018-06-29T00:02:24.675Z,20.70
2018-06-29T00:04:52.997Z,20.80
2018-06-29T00:07:21.199Z,20.80
2018-06-29T00:09:49.395Z,20.80
2018-06-29T00:12:17.611Z,20.80
2018-06-29T00:14:45.994Z,20.80
2018-06-29T00:17:14.309Z,20.80
2018-06-29T00:19:42.529Z,20.80
2018-06-29T00:22:10.913Z,20.80
2018-06-29T00:24:39.109Z,20.80
2018-06-29T00:27:07.322Z,20.80
2018-06-29T00:29:35.557Z,20.80
2018-06-29T00:32:03.840Z,20.80
2018-06-29T00:34:32.037Z,20.80
2018-06-29T00:37:00.274Z,20.80
2018-06-29T00:39:28.501Z,20.80
2018-06-29T00:41:56.831Z,20.80
2018-06-29T00:44:25.113Z,20.80
2018-06-29T00:46:53.370Z,20.70
2018-06-29T00:49:21.597Z,20.70
2018-06-29T00:51:49.842Z,20.70
2018-06-29T00:54:18.093Z,20.60
2018-06-29T00:56:46.350Z,20.60
2018-06-29T00:59:14.845Z,20.60
2018-06-29T01:01:43.045Z,20.60
2018-06-29T01:04:11.246Z,20.60
2018-06-29T01:06:39.456Z,20.60
2018-06-29T01:11:36.927Z,20.60
2018-06-29T01:14:05.217Z,20.60
2018-06-29T01:16:33.409Z,20.60
2018-06-29T01:19:01.669Z,20.60
2018-06-29T01:21:29.874Z,20.60
2018-06-29T01:23:58.106Z,20.60
2018-06-29T01:26:26.309Z,20.50
2018-06-29T01:28:54.542Z,20.50
2018-06-29T01:31:22.821Z,20.50
2018-06-29T01:33:51.056Z,20.50
2018-06-29T01:36:19.270Z,20.50
2018-06-29T01:38:47.485Z,20.50
2018-06-29T01:41:15.678Z,20.60
2018-06-29T01:43:43.914Z,20.50
2018-06-29T01:48:40.083Z,20.50
2018-06-29T01:51:08.295Z,20.50
2018-06-29T01:53:36.582Z,20.50
2018-06-29T01:56:04.859Z,20.50
2018-06-29T01:58:33.073Z,20.50
2018-06-29T02:01:01.314Z,20.50
2018-06-29T02:05:57.553Z,20.50
2018-06-29T02:08:25.798Z,20.50
2018-06-29T02:10:54.003Z,20.50
2018-06-29T02:13:22.229Z,20.50
2018-06-29T02:15:50.429Z,20.50
2018-06-29T02:18:18.682Z,20.50
2018-06-29T02:20:46.913Z,20.50
2018-06-29T02:23:15.117Z,20.50
2018-06-29T02:25:43.478Z,20.60
2018-06-29T02:28:11.694Z,20.60
2018-06-29T02:30:40.007Z,20.60
2018-06-29T02:33:08.173Z,20.60
2018-06-29T02:35:36.383Z,20.70
2018-06-29T02:38:04.969Z,20.70
2018-06-29T02:40:33.178Z,20.70
2018-06-29T02:43:01.430Z,20.70
2018-06-29T02:45:29.658Z,20.70
2018-06-29T02:47:57.855Z,20.70
2018-06-29T02:50:26.081Z,20.70
2018-06-29T02:52:54.329Z,20.70
2018-06-29T02:55:22.591Z,20.80
2018-06-29T02:57:50.807Z,20.80
2018-06-29T03:00:19.006Z,20.80
2018-06-29T03:02:47.233Z,20.80
2018-06-29T03:05:15.637Z,20.80
2018-06-29T03:07:43.883Z,20.80
2018-06-29T03:10:12.094Z,20.80
2018-06-29T03:12:40.328Z,20.80
2018-06-29T03:15:08.733Z,20.80
2018-06-29T03:17:36.962Z,20.80
2018-06-29T03:20:05.181Z,20.80
2018-06-29T03:22:33.385Z,20.70
2018-06-29T03:25:01.577Z,20.80
2018-06-29T03:29:57.785Z,20.80
2018-06-29T03:32:26.002Z,20.80
2018-06-29T03:34:54.207Z,20.80
2018-06-29T03:37:22.610Z,20.80
2018-06-29T03:39:50.810Z,20.80
2018-06-29T03:42:19.037Z,20.80
2018-06-29T03:44:47.238Z,20.80
2018-06-29T03:47:15.471Z,20.80
2018-06-29T03:49:43.687Z,20.80
2018-06-29T03:52:11.906Z,20.80
2018-06-29T03:54:40.125Z,20.80
2018-06-29T03:57:08.342Z,20.80
2018-06-29T04:02:04.529Z,20.80
2018-06-29T04:04:32.769Z,20.80
2018-06-29T04:07:01.002Z,20.80
2018-06-29T04:09:29.222Z,20.80
2018-06-29T04:11:57.425Z,20.80
2018-06-29T04:14:25.631Z,20.80
2018-06-29T04:16:53.877Z,20.80
2018-06-29T04:19:22.083Z,20.80
2018-06-29T04:21:50.290Z,20.80
2018-06-29T04:26:46.455Z,20.80
2018-06-29T04:29:14.762Z,20.80
2018-06-29T04:31:42.949Z,20.80
2018-06-29T04:34:11.161Z,20.90
2018-06-29T04:36:39.663Z,20.90
2018-06-29T04:39:09.459Z,20.90
2018-06-29T04:41:37.832Z,20.90
2018-06-29T04:44:06.102Z,20.90
2018-06-29T04:46:34.385Z,20.90
2018-06-29T04:51:31.337Z,20.90
2018-06-29T04:53:59.839Z,20.80
2018-06-29T04:56:28.074Z,20.80
2018-06-29T04:58:56.349Z,20.80
2018-06-29T05:01:24.561Z,20.80
2018-06-29T05:03:52.934Z,20.80
2018-06-29T05:06:21.234Z,20.80
2018-06-29T05:08:49.475Z,20.80
2018-06-29T05:11:17.710Z,20.80
2018-06-29T05:13:45.933Z,20.80
2018-06-29T05:18:42.554Z,20.80
2018-06-29T05:21:10.849Z,20.80
2018-06-29T05:23:39.177Z,20.80
2018-06-29T05:26:07.849Z,20.90
2018-06-29T05:28:36.066Z,20.90
2018-06-29T05:31:04.353Z,20.90
2018-06-29T05:33:32.558Z,20.90
2018-06-29T05:36:00.778Z,20.90
2018-06-29T05:38:28.985Z,20.90
2018-06-29T05:40:57.205Z,20.90
2018-06-29T05:43:25.755Z,20.90
2018-06-29T05:45:54.009Z,20.90
2018-06-29T05:48:22.210Z,20.90
2018-06-29T05:50:50.438Z,20.90
2018-06-29T05:53:18.639Z,20.90
2018-06-29T05:55:46.890Z,20.90
2018-06-29T05:58:15.115Z,20.90
2018-06-29T06:00:43.346Z,20.90
2018-06-29T06:03:11.546Z,21.00
2018-06-29T06:05:39.778Z,21.00
2018-06-29T06:08:08.053Z,21.00
2018-06-29T06:10:36.298Z,21.00
2018-06-29T06:13:04.582Z,21.00
2018-06-29T06:15:32.833Z,21.00
2018-06-29T06:18:01.033Z,21.00
2018-06-29T06:20:29.295Z,21.00
2018-06-29T06:23:07.446Z,21.00
2018-06-29T06:25:35.665Z,21.00
2018-06-29T06:28:03.866Z,21.00
2018-06-29T06:30:32.300Z,21.10
2018-06-29T06:33:00.659Z,21.10
2018-06-29T06:35:28.873Z,21.10
2018-06-29T06:37:57.085Z,21.10
2018-06-29T06:40:25.295Z,21.10
2018-06-29T06:42:53.529Z,21.10
2018-06-29T06:45:21.987Z,21.20
2018-06-29T06:47:50.174Z,21.20
2018-06-29T06:50:18.574Z,21.20
2018-06-29T06:52:46.813Z,21.20
2018-06-29T06:55:15.092Z,21.20
2018-06-29T06:57:43.368Z,21.30
2018-06-29T07:00:11.554Z,21.30
2018-06-29T07:02:39.787Z,21.30
2018-06-29T07:05:08.036Z,21.30
2018-06-29T07:07:36.669Z,21.30
2018-06-29T07:10:05.073Z,21.30
2018-06-29T07:12:33.713Z,21.40
2018-06-29T07:15:01.922Z,21.40
2018-06-29T07:17:30.866Z,21.40
2018-06-29T07:20:00.229Z,21.40
2018-06-29T07:22:28.706Z,21.50
2018-06-29T07:24:57.328Z,21.50
2018-06-29T07:27:26.064Z,21.50
2018-06-29T07:29:54.526Z,21.60
2018-06-29T07:32:23.519Z,21.60
2018-06-29T07:34:52.121Z,21.60
2018-06-29T07:37:20.717Z,21.60
2018-06-29T07:39:50.024Z,21.70
2018-06-29T07:42:18.402Z,21.70
2018-06-29T07:44:46.757Z,21.70
2018-06-29T07:47:15.300Z,21.80
2018-06-29T07:49:43.684Z,21.80
2018-06-29T07:52:12.611Z,21.90
2018-06-29T07:54:41.210Z,21.90
2018-06-29T07:57:09.936Z,21.90
2018-06-29T07:59:38.324Z,21.90
2018-06-29T08:02:07.281Z,21.90
2018-06-29T08:04:35.700Z,22.00
2018-06-29T08:07:04.141Z,22.00
2018-06-29T08:09:32.766Z,22.00
2018-06-29T08:14:29.362Z,22.10
2018-06-29T08:16:57.976Z,22.10
2018-06-29T08:19:26.809Z,22.10
2018-06-29T08:21:55.161Z,22.20
2018-06-29T08:24:23.647Z,22.20
2018-06-29T08:26:52.231Z,22.30
2018-06-29T08:29:20.795Z,22.30
2018-06-29T08:31:49.061Z,22.40
2018-06-29T08:34:17.808Z,22.40
2018-06-29T08:36:46.225Z,22.50
2018-06-29T08:39:14.872Z,22.50
2018-06-29T08:41:43.488Z,22.60
2018-06-29T08:44:11.834Z,22.60
2018-06-29T08:46:40.768Z,22.70
2018-06-29T08:49:09.545Z,22.70
2018-06-29T08:51:37.806Z,22.70
2018-06-29T08:54:06.501Z,22.70
2018-06-29T08:56:34.805Z,22.70
2018-06-29T08:59:03.614Z,22.80
2018-06-29T09:01:32.078Z,22.80
2018-06-29T09:04:00.689Z,22.80
2018-06-29T09:06:29.010Z,22.80
2018-06-29T09:08:57.512Z,22.90
2018-06-29T09:11:26.589Z,22.90
2018-06-29T09:13:55.057Z,22.90
2018-06-29T09:16:23.530Z,22.90
2018-06-29T09:18:52.715Z,23.00
2018-06-29T09:21:20.925Z,23.00
2018-06-29T09:23:49.287Z,23.10
2018-06-29T09:26:17.673Z,23.10
2018-06-29T09:28:46.080Z,23.10
2018-06-29T09:31:14.838Z,23.20
2018-06-29T09:33:43.541Z,23.20
2018-06-29T09:36:11.753Z,23.30
2018-06-29T09:38:40.020Z,23.30
2018-06-29T09:41:08.453Z,23.30
2018-06-29T09:43:36.850Z,23.40
2018-06-29T09:46:05.283Z,23.40
2018-06-29T09:48:33.710Z,23.50
2018-06-29T09:51:01.994Z,23.60
2018-06-29T09:53:30.215Z,23.70
2018-06-29T09:55:58.438Z,23.70
2018-06-29T09:58:26.684Z,23.80
2018-06-29T10:00:55.413Z,23.90
2018-06-29T10:03:23.085Z,23.90
2018-06-29T10:05:51.283Z,24.00
2018-06-29T10:08:19.646Z,24.00
2018-06-29T10:10:47.891Z,24.10
2018-06-29T10:13:16.116Z,24.10
2018-06-29T10:15:44.330Z,24.20
2018-06-29T10:18:12.700Z,24.20
2018-06-29T10:20:40.944Z,24.30
2018-06-29T10:23:09.141Z,24.40
2018-06-29T10:25:37.346Z,24.40
2018-06-29T10:28:05.772Z,24.40
2018-06-29T10:30:33.957Z,24.50
2018-06-29T10:33:02.270Z,24.50
2018-06-29T10:35:30.473Z,24.50
2018-06-29T10:40:26.666Z,24.60
2018-06-29T10:42:54.893Z,24.70
2018-06-29T10:45:23.117Z,24.70
2018-06-29T10:47:51.697Z,24.80
2018-06-29T10:50:20.092Z,24.90
2018-06-29T10:52:48.507Z,24.90
2018-06-29T10:55:17.076Z,24.90
2018-06-29T10:57:45.345Z,24.90
2018-06-29T11:00:13.744Z,24.90
2018-06-29T11:02:42.098Z,25.00
2018-06-29T11:05:10.878Z,25.00
2018-06-29T11:07:39.289Z,25.00
2018-06-29T11:10:08.117Z,25.10
2018-06-29T11:12:36.461Z,25.00
2018-06-29T11:17:33.241Z,25.10
2018-06-29T11:20:01.866Z,25.10
2018-06-29T11:22:30.491Z,25.10
2018-06-29T11:24:59.390Z,25.10
2018-06-29T11:27:27.999Z,25.10
2018-06-29T11:29:56.757Z,25.10
2018-06-29T11:32:25.026Z,25.10
2018-06-29T11:34:53.636Z,25.20
2018-06-29T11:37:21.957Z,25.20
2018-06-29T11:39:50.385Z,25.30
2018-06-29T11:42:18.820Z,25.30
2018-06-29T11:44:47.038Z,25.40
2018-06-29T11:47:15.293Z,25.40
2018-06-29T11:52:12.566Z,25.50
2018-06-29T11:54:41.026Z,25.50
2018-06-29T11:57:09.751Z,25.50
2018-06-29T11:59:38.132Z,25.60
2018-06-29T12:02:06.459Z,25.60
2018-06-29T12:04:34.683Z,25.60
2018-06-29T12:07:02.900Z,25.70
2018-06-29T12:09:31.131Z,25.70
2018-06-29T12:11:59.334Z,25.80
2018-06-29T12:14:27.833Z,25.80
2018-06-29T12:16:56.098Z,25.80
2018-06-29T12:19:24.351Z,25.80
2018-06-29T12:21:53.451Z,25.90
2018-06-29T12:24:21.726Z,25.90
2018-06-29T12:26:49.933Z,25.90
2018-06-29T12:29:18.429Z,25.90
2018-06-29T12:31:46.682Z,26.00
2018-06-29T12:34:14.885Z,26.00
2018-06-29T12:36:43.109Z,26.10
2018-06-29T12:39:11.499Z,26.10
2018-06-29T12:41:39.793Z,26.10
2018-06-29T12:44:08.142Z,26.20
2018-06-29T12:46:36.349Z,26.20
2018-06-29T12:49:04.943Z,26.30
2018-06-29T12:51:33.244Z,26.30
2018-06-29T12:54:01.434Z,26.30
2018-06-29T12:56:29.665Z,26.30
2018-06-29T12:58:57.913Z,26.40
2018-06-29T13:01:26.153Z,26.40
2018-06-29T13:03:54.907Z,26.50
2018-06-29T13:06:23.304Z,26.50
2018-06-29T13:08:51.627Z,26.50
2018-06-29T13:11:20.058Z,26.50
2018-06-29T13:13:48.361Z,26.50
2018-06-29T13:16:16.829Z,26.60
2018-06-29T13:18:45.173Z,26.60
2018-06-29T13:21:13.642Z,26.60
2018-06-29T13:23:41.998Z,26.60
2018-06-29T13:26:10.341Z,26.60
2018-06-29T13:28:38.642Z,26.60
2018-06-29T13:31:07.112Z,26.60
2018-06-29T13:33:36.062Z,26.60
2018-06-29T13:36:04.547Z,26.60
2018-06-29T13:38:32.888Z,26.60
2018-06-29T13:41:01.182Z,26.60
2018-06-29T13:43:29.439Z,26.60
2018-06-29T13:45:57.826Z,26.70
2018-06-29T13:48:26.106Z,26.70
2018-06-29T13:50:54.406Z,26.80
2018-06-29T13:53:22.769Z,26.80
2018-06-29T13:55:51.093Z,26.80
2018-06-29T13:58:19.514Z,26.90
2018-06-29T14:00:47.869Z,26.90
2018-06-29T14:03:16.739Z,26.80
2018-06-29T14:05:45.353Z,26.90
2018-06-29T14:08:13.834Z,26.80
2018-06-29T14:10:43.249Z,26.80
2018-06-29T14:13:12.048Z,26.70
2018-06-29T14:15:40.472Z,26.70
2018-06-29T14:18:09.153Z,26.70
2018-06-29T14:20:37.475Z,26.70
2018-06-29T14:23:06.197Z,26.70
2018-06-29T14:25:34.798Z,26.70
2018-06-29T14:28:03.264Z,26.70
2018-06-29T14:30:31.482Z,26.70
2018-06-29T14:32:59.747Z,26.80
2018-06-29T14:35:28.120Z,26.90
2018-06-29T14:37:56.898Z,26.90
2018-06-29T14:40:25.546Z,26.90
2018-06-29T14:42:54.724Z,26.90
2018-06-29T14:45:23.272Z,27.00
2018-06-29T14:47:51.853Z,27.30
2018-06-29T14:50:20.270Z,27.60
2018-06-29T14:52:48.632Z,27.60
2018-06-29T14:55:18.114Z,27.70
2018-06-29T14:57:46.725Z,27.70
2018-06-29T15:00:15.255Z,27.60
2018-06-29T15:02:44.040Z,27.50
2018-06-29T15:05:12.384Z,27.50
2018-06-29T15:07:40.845Z,27.50
2018-06-29T15:10:09.373Z,27.40
2018-06-29T15:12:37.734Z,27.40
2018-06-29T15:15:06.062Z,27.50
2018-06-29T15:17:35.389Z,27.50
2018-06-29T15:20:04.998Z,27.40
2018-06-29T15:22:33.208Z,27.40
2018-06-29T15:25:01.559Z,27.50
2018-06-29T15:27:30.525Z,27.50
2018-06-29T15:29:58.782Z,27.50
2018-06-29T15:32:27.142Z,27.50
2018-06-29T15:34:55.458Z,27.50
2018-06-29T15:37:24.025Z,27.60
2018-06-29T15:39:52.921Z,27.60
2018-06-29T15:42:21.853Z,27.60
2018-06-29T15:44:50.289Z,27.60
2018-06-29T15:47:18.631Z,27.60
2018-06-29T15:49:46.890Z,27.60
2018-06-29T15:52:15.185Z,27.50
2018-06-29T15:54:43.585Z,27.50
2018-06-29T15:57:11.958Z,27.50
2018-06-29T16:02:09.066Z,27.40
2018-06-29T16:04:37.385Z,27.40
2018-06-29T16:07:06.428Z,27.40
2018-06-29T16:09:34.861Z,27.30
2018-06-29T16:12:03.380Z,27.20
2018-06-29T16:14:32.062Z,27.20
2018-06-29T16:17:00.704Z,27.20
2018-06-29T16:19:29.395Z,27.20
2018-06-29T16:21:57.695Z,27.20
2018-06-29T16:24:26.061Z,27.20
2018-06-29T16:26:54.402Z,27.20
2018-06-29T16:29:22.612Z,27.10
2018-06-29T16:31:50.814Z,27.10
2018-06-29T16:34:19.044Z,27.10
2018-06-29T16:36:47.233Z,27.10
2018-06-29T16:39:15.464Z,27.00
2018-06-29T16:41:43.654Z,27.00
2018-06-29T16:44:11.870Z,27.00
2018-06-29T16:46:40.103Z,27.00
2018-06-29T16:49:08.322Z,27.00
2018-06-29T16:51:36.537Z,27.10
2018-06-29T16:54:04.782Z,27.10
2018-06-29T16:56:32.981Z,27.00
2018-06-29T16:59:01.218Z,27.10
2018-06-29T17:01:30.423Z,27.10
2018-06-29T17:03:58.630Z,27.10
2018-06-29T17:06:26.830Z,27.20
2018-06-29T17:08:55.055Z,27.10
2018-06-29T17:11:23.274Z,27.20
2018-06-29T17:13:51.469Z,27.20
2018-06-29T17:16:19.677Z,27.30
2018-06-29T17:18:48.049Z,27.30
2018-06-29T17:21:16.111Z,27.30
2018-06-29T17:23:44.358Z,27.30
2018-06-29T17:26:12.510Z,27.30
2018-06-29T17:28:40.715Z,27.40
2018-06-29T17:31:08.930Z,27.40
2018-06-29T17:33:37.334Z,27.40
2018-06-29T17:36:05.870Z,27.40
2018-06-29T17:38:34.069Z,27.40
2018-06-29T17:41:02.335Z,27.40
2018-06-29T17:43:30.534Z,27.40
2018-06-29T17:45:58.760Z,27.50
2018-06-29T17:48:27.010Z,27.50
2018-06-29T17:50:55.326Z,27.60
2018-06-29T17:53:23.615Z,27.70
2018-06-29T17:55:52.021Z,27.70
2018-06-29T17:58:20.384Z,27.70
2018-06-29T18:00:48.624Z,27.70
2018-06-29T18:03:16.777Z,27.70
2018-06-29T18:05:45.003Z,27.70
2018-06-29T18:08:13.206Z,27.70
2018-06-29T18:10:41.490Z,27.60
2018-06-29T18:13:09.907Z,27.60
2018-06-29T18:15:37.929Z,27.50
2018-06-29T18:18:06.367Z,27.50
2018-06-29T18:20:34.563Z,27.40
2018-06-29T18:23:02.789Z,27.40
2018-06-29T18:25:30.972Z,27.30
2018-06-29T18:30:27.338Z,27.20
2018-06-29T18:32:55.810Z,27.20
2018-06-29T18:35:24.081Z,27.10
2018-06-29T18:37:52.413Z,27.10
2018-06-29T18:40:20.618Z,27.00
2018-06-29T18:42:48.829Z,27.00
2018-06-29T18:45:17.031Z,26.90
2018-06-29T18:47:45.277Z,26.90
2018-06-29T18:50:13.457Z,26.90
2018-06-29T18:52:41.718Z,26.80
2018-06-29T18:55:10.085Z,26.80
2018-06-29T18:57:38.327Z,26.80
2018-06-29T19:00:06.767Z,26.70
2018-06-29T19:02:34.970Z,26.70
2018-06-29T19:05:03.177Z,26.70
2018-06-29T19:09:59.389Z,26.60
2018-06-29T19:12:27.613Z,26.50
2018-06-29T19:14:55.805Z,26.50
2018-06-29T19:17:24.029Z,26.50
2018-06-29T19:19:52.229Z,26.40
2018-06-29T19:22:20.426Z,26.40
2018-06-29T19:24:48.629Z,26.30
2018-06-29T19:27:16.814Z,26.30
2018-06-29T19:29:45.134Z,26.20
2018-06-29T19:32:13.330Z,26.20
2018-06-29T19:34:41.532Z,26.20
2018-06-29T19:37:09.764Z,26.20
2018-06-29T19:39:37.953Z,26.10
2018-06-29T19:42:06.169Z,26.10
2018-06-29T19:44:34.380Z,26.00
2018-06-29T19:47:02.630Z,26.00
2018-06-29T19:49:30.865Z,25.90
2018-06-29T19:51:59.111Z,25.90
2018-06-29T19:54:27.362Z,25.90
2018-06-29T19:56:55.562Z,25.90
2018-06-29T19:59:23.793Z,25.80
2018-06-29T20:01:52.029Z,25.70
2018-06-29T20:04:20.233Z,25.70
2018-06-29T20:06:48.453Z,25.70
2018-06-29T20:09:16.701Z,25.60
2018-06-29T20:11:44.893Z,25.60
2018-06-29T20:14:14.740Z,25.50
2018-06-29T20:16:43.206Z,25.50
2018-06-29T20:19:11.453Z,25.40
2018-06-29T20:21:39.855Z,25.30
2018-06-29T20:24:08.221Z,25.30
2018-06-29T20:29:04.441Z,25.20
2018-06-29T20:31:32.641Z,25.20
2018-06-29T20:34:00.837Z,25.10
2018-06-29T20:36:29.070Z,25.10
2018-06-29T20:38:57.382Z,25.00
2018-06-29T20:41:25.725Z,24.90
2018-06-29T20:43:53.991Z,24.90
2018-06-29T20:46:22.193Z,24.80
2018-06-29T20:48:50.450Z,24.80
2018-06-29T20:51:18.649Z,24.70
2018-06-29T20:53:46.907Z,24.70
2018-06-29T20:56:15.077Z,24.60
2018-06-29T20:58:43.277Z,24.60
2018-06-29T21:01:11.609Z,24.50
2018-06-29T21:03:39.798Z,24.50
2018-06-29T21:06:08.045Z,24.40
2018-06-29T21:08:36.246Z,24.40
2018-06-29T21:11:04.502Z,24.30
2018-06-29T21:13:33.735Z,24.30
2018-06-29T21:16:01.939Z,24.20
2018-06-29T21:18:30.166Z,24.20
2018-06-29T21:20:58.359Z,24.10
2018-06-29T21:23:26.587Z,24.10
2018-06-29T21:25:54.821Z,24.00
2018-06-29T21:28:23.025Z,24.00
2018-06-29T21:30:51.229Z,24.00
2018-06-29T21:33:19.450Z,23.90
2018-06-29T21:38:15.603Z,23.90
2018-06-29T21:40:43.816Z,23.80
2018-06-29T21:43:12.026Z,23.80
2018-06-29T21:45:40.209Z,23.70
2018-06-29T21:48:08.437Z,23.70
2018-06-29T21:50:36.638Z,23.70
2018-06-29T21:53:04.863Z,23.60
2018-06-29T21:55:33.045Z,23.60
2018-06-29T21:58:01.263Z,23.50
2018-06-29T22:00:34.940Z,23.50
2018-06-29T22:03:08.818Z,23.50
2018-06-29T22:05:37.814Z,23.40
2018-06-29T22:08:06.702Z,23.40
2018-06-29T22:10:34.907Z,23.30
2018-06-29T22:13:03.132Z,23.30
2018-06-29T22:15:31.329Z,23.20
2018-06-29T22:17:59.528Z,23.10
2018-06-29T22:20:27.765Z,23.10
2018-06-29T22:22:55.965Z,23.00
2018-06-29T22:25:24.185Z,23.00
2018-06-29T22:27:52.522Z,23.00
2018-06-29T22:30:21.090Z,22.90
2018-06-29T22:32:49.561Z,22.90
2018-06-29T22:35:17.925Z,22.90
2018-06-29T22:37:46.830Z,22.80
2018-06-29T22:40:15.093Z,22.80
2018-06-29T22:42:43.301Z,22.80
2018-06-29T22:45:11.585Z,22.80
2018-06-29T22:47:39.805Z,22.70
2018-06-29T22:50:08.017Z,22.70
2018-06-29T22:52:36.257Z,22.70
2018-06-29T22:55:04.486Z,22.70
2018-06-29T22:57:32.676Z,22.60
2018-06-29T23:00:00.881Z,22.60
2018-06-29T23:02:29.102Z,22.60
2018-06-29T23:04:57.301Z,22.60
2018-06-29T23:07:25.517Z,22.60
2018-06-29T23:09:53.726Z,22.60
2018-06-29T23:12:21.922Z,22.60
2018-06-29T23:14:50.154Z,22.50
2018-06-29T23:17:18.369Z,22.50
2018-06-29T23:19:46.573Z,22.50
2018-06-29T23:22:14.772Z,22.40
2018-06-29T23:24:42.978Z,22.50
2018-06-29T23:27:11.225Z,22.40
2018-06-29T23:29:39.443Z,22.40
2018-06-29T23:32:07.656Z,22.40
2018-06-29T23:34:35.874Z,22.40
2018-06-29T23:37:04.105Z,22.40
2018-06-29T23:39:32.331Z,22.30
2018-06-29T23:42:00.562Z,22.30
2018-06-29T23:44:28.782Z,22.20
2018-06-29T23:46:56.966Z,22.20
2018-06-29T23:49:25.190Z,22.10
2018-06-29T23:51:53.425Z,22.10
2018-06-29T23:54:21.623Z,22.10
2018-06-29T23:59:17.762Z,21.90
